createdAt,value
2023-05-01T00:01:09.668Z,55.94
2023-05-01T00:04:12.130Z,56.12
2023-05-01T00:07:14.556Z,57.10
2023-05-01T00:10:20.245Z,56.96
2023-05-01T00:13:24.332Z,56.71
2023-05-01T00:16:26.590Z,56.29
2023-05-01T00:19:31.235Z,56.60
2023-05-01T00:22:35.756Z,56.25
2023-05-01T00:25:40.985Z,56.48
2023-05-01T00:28:43.268Z,57.06
2023-05-01T00:31:48.379Z,57.18
2023-05-01T00:34:53.501Z,56.65
2023-05-01T00:37:55.992Z,55.81
2023-05-01T00:40:58.368Z,56.19
2023-05-01T00:44:00.772Z,56.37
2023-05-01T00:47:05.295Z,57.75
2023-05-01T00:50:10.885Z,56.41
2023-05-01T00:53:15.855Z,57.08
2023-05-01T00:56:21.506Z,57.18
2023-05-01T00:59:29.262Z,57.73
2023-05-01T01:02:42.000Z,57.54
2023-05-01T01:06:11.852Z,58.22
2023-05-01T01:09:29.108Z,58.54
2023-05-01T01:12:41.576Z,59.35
2023-05-01T01:15:49.898Z,60.39
2023-05-01T01:19:15.080Z,60.79
2023-05-01T01:22:24.054Z,60.21
2023-05-01T01:25:49.093Z,60.55
2023-05-01T01:29:05.404Z,61.07
2023-05-01T01:32:32.032Z,61.49
2023-05-01T01:35:36.960Z,61.11
2023-05-01T01:39:10.604Z,58.29
2023-05-01T01:42:21.219Z,56.46
2023-05-01T01:45:29.380Z,54.74
2023-05-01T01:48:38.349Z,54.56
2023-05-01T01:51:42.322Z,56.12
2023-05-01T01:54:58.591Z,56.91
2023-05-01T01:58:03.786Z,58.09
2023-05-01T02:01:07.737Z,58.78
2023-05-01T02:04:13.463Z,59.10
2023-05-01T02:07:20.339Z,58.97
2023-05-01T02:10:27.199Z,60.40
2023-05-01T02:13:31.235Z,61.34
2023-05-01T02:16:37.372Z,62.54
2023-05-01T02:19:47.498Z,63.51
2023-05-01T02:22:55.061Z,63.34
2023-05-01T02:26:02.089Z,64.09
2023-05-01T02:29:07.504Z,64.82
2023-05-01T02:32:10.032Z,65.27
2023-05-01T02:35:15.051Z,65.46
2023-05-01T02:38:20.104Z,65.47
2023-05-01T02:41:26.182Z,66.41
2023-05-01T02:44:30.582Z,66.82
2023-05-01T02:47:39.590Z,66.31
2023-05-01T02:50:46.212Z,66.72
2023-05-01T02:53:51.376Z,67.54
2023-05-01T02:56:59.487Z,67.13
2023-05-01T03:00:02.005Z,67.10
2023-05-01T03:03:04.402Z,66.87
2023-05-01T03:06:06.797Z,66.97
2023-05-01T03:09:11.822Z,67.06
2023-05-01T03:12:14.140Z,66.31
2023-05-01T03:15:17.047Z,65.83
2023-05-01T03:18:19.332Z,66.52
2023-05-01T03:21:25.234Z,65.81
2023-05-01T03:24:29.992Z,64.98
2023-05-01T03:27:32.275Z,66.34
2023-05-01T03:30:35.285Z,67.23
2023-05-01T03:33:41.156Z,67.51
2023-05-01T03:36:46.012Z,67.29
2023-05-01T03:39:51.710Z,68.06
2023-05-01T03:43:03.126Z,68.87
2023-05-01T03:46:05.632Z,68.76
2023-05-01T03:49:08.020Z,69.69
2023-05-01T03:52:17.172Z,70.07
2023-05-01T03:55:22.246Z,70.25
2023-05-01T03:58:26.332Z,69.79
2023-05-01T04:01:33.726Z,70.98
2023-05-01T04:04:36.132Z,71.37
2023-05-01T04:07:39.108Z,71.22
2023-05-01T04:10:41.533Z,70.82
2023-05-01T04:13:44.316Z,70.28
2023-05-01T04:16:49.309Z,70.73
2023-05-01T04:19:51.572Z,69.79
2023-05-01T04:22:56.215Z,69.75
2023-05-01T04:25:59.126Z,71.49
2023-05-01T04:29:01.565Z,71.26
2023-05-01T04:32:06.121Z,70.12
2023-05-01T04:35:09.467Z,68.24
2023-05-01T04:38:12.324Z,67.31
2023-05-01T04:41:19.435Z,66.99
2023-05-01T04:44:23.055Z,65.75
2023-05-01T04:47:25.364Z,65.96
2023-05-01T04:50:27.792Z,65.67
2023-05-01T04:53:30.951Z,66.04
2023-05-01T04:56:36.126Z,65.27
2023-05-01T04:59:38.818Z,64.19
2023-05-01T05:02:41.247Z,64.36
2023-05-01T05:05:46.210Z,63.71
2023-05-01T05:08:52.104Z,62.72
2023-05-01T05:11:57.005Z,61.36
2023-05-01T05:15:01.562Z,59.67
2023-05-01T05:18:09.344Z,56.95
2023-05-01T05:21:11.688Z,56.44
2023-05-01T05:24:21.745Z,55.91
2023-05-01T05:27:23.965Z,53.44
2023-05-01T05:30:34.456Z,51.35
2023-05-01T05:33:41.440Z,52.01
2023-05-01T05:36:48.673Z,49.18
2023-05-01T05:39:54.466Z,46.65
2023-05-01T05:43:01.943Z,45.58
2023-05-01T05:46:05.948Z,44.43
2023-05-01T05:49:10.391Z,43.55
2023-05-01T05:52:12.744Z,40.64
2023-05-01T05:55:17.785Z,40.54
2023-05-01T05:58:33.723Z,40.26
2023-05-01T06:01:42.704Z,39.56
2023-05-01T06:04:45.103Z,39.35
2023-05-01T06:07:51.537Z,37.32
2023-05-01T06:10:53.959Z,36.33
2023-05-01T06:13:57.416Z,34.43
2023-05-01T06:17:02.287Z,34.98
2023-05-01T06:20:06.303Z,33.94
2023-05-01T06:23:09.988Z,34.64
2023-05-01T06:26:43.586Z,33.71
2023-05-01T06:29:49.026Z,33.27
2023-05-01T06:32:53.783Z,32.51
2023-05-01T06:35:59.620Z,31.89
2023-05-01T06:39:02.089Z,30.44
2023-05-01T06:42:07.800Z,31.03
2023-05-01T06:45:15.037Z,29.90
2023-05-01T06:48:19.622Z,31.34
2023-05-01T06:51:22.190Z,29.76
2023-05-01T06:54:24.504Z,30.16
2023-05-01T06:57:29.196Z,29.19
2023-05-01T07:00:39.246Z,29.50
2023-05-01T07:03:41.620Z,30.92
2023-05-01T07:06:44.028Z,30.12
2023-05-01T07:09:46.321Z,30.48
2023-05-01T07:12:48.608Z,29.38
2023-05-01T07:15:54.367Z,29.15
2023-05-01T07:18:57.292Z,29.58
2023-05-01T07:22:04.920Z,29.27
2023-05-01T07:25:09.954Z,29.06
2023-05-01T07:28:12.490Z,28.63
2023-05-01T07:31:17.229Z,29.62
2023-05-01T07:34:21.908Z,29.60
2023-05-01T07:37:24.317Z,30.46
2023-05-01T07:40:26.815Z,29.05
2023-05-01T07:43:29.162Z,28.11
2023-05-01T07:46:31.625Z,29.19
2023-05-01T07:49:38.631Z,28.01
2023-05-01T07:52:43.373Z,26.16
2023-05-01T07:55:50.294Z,26.50
2023-05-01T07:58:54.772Z,27.37
2023-05-01T08:01:57.247Z,26.33
2023-05-01T08:04:59.706Z,27.15
2023-05-01T08:08:02.122Z,26.71
2023-05-01T08:11:04.514Z,25.97
2023-05-01T08:14:09.312Z,25.37
2023-05-01T08:17:14.140Z,24.29
2023-05-01T08:20:21.641Z,23.68
2023-05-01T08:23:25.315Z,24.10
2023-05-01T08:26:27.699Z,23.18
2023-05-01T08:29:34.480Z,22.51
2023-05-01T08:32:36.771Z,21.64
2023-05-01T08:35:43.792Z,21.10
2023-05-01T08:38:48.521Z,22.39
2023-05-01T08:41:58.413Z,20.95
2023-05-01T08:45:01.593Z,21.54
2023-05-01T08:48:07.332Z,22.46
2023-05-01T08:51:13.617Z,23.44
2023-05-01T08:54:20.402Z,22.93
2023-05-01T08:57:22.804Z,22.12
2023-05-01T09:00:25.836Z,22.47
2023-05-01T09:03:34.495Z,22.07
2023-05-01T09:06:37.019Z,24.82
2023-05-01T09:09:43.682Z,25.47
2023-05-01T09:12:56.560Z,24.35
2023-05-01T09:16:02.096Z,24.42
2023-05-01T09:19:04.477Z,25.39
2023-05-01T09:22:07.564Z,25.29
2023-05-01T09:25:11.028Z,25.14
2023-05-01T09:28:15.898Z,26.34
2023-05-01T09:31:29.808Z,26.31
2023-05-01T09:34:32.485Z,26.16
2023-05-01T09:37:37.123Z,25.48
2023-05-01T09:40:39.534Z,24.93
2023-05-01T09:43:49.201Z,24.35
2023-05-01T09:46:54.457Z,24.09
2023-05-01T09:50:00.076Z,26.74
2023-05-01T09:53:06.738Z,26.75
2023-05-01T09:56:09.509Z,26.67
2023-05-01T09:59:22.195Z,25.42
2023-05-01T10:02:32.358Z,26.03
2023-05-01T10:05:44.703Z,25.94
2023-05-01T10:08:54.351Z,25.75
2023-05-01T10:11:57.869Z,25.41
2023-05-01T10:15:07.880Z,28.39
2023-05-01T10:18:19.929Z,28.19
2023-05-01T10:21:24.932Z,28.17
2023-05-01T10:24:31.993Z,27.90
2023-05-01T10:27:35.580Z,26.82
2023-05-01T10:30:43.631Z,29.21
2023-05-01T10:33:47.193Z,29.17
2023-05-01T10:37:07.138Z,30.18
2023-05-01T10:40:43.569Z,29.63
2023-05-01T10:44:23.783Z,29.72
2023-05-01T10:47:30.701Z,29.45
2023-05-01T10:50:34.956Z,29.81
2023-05-01T10:53:38.583Z,31.34
2023-05-01T10:56:43.374Z,31.43
2023-05-01T11:00:00.491Z,31.46
2023-05-01T11:03:21.111Z,30.10
2023-05-01T11:06:26.863Z,29.44
2023-05-01T11:09:41.250Z,29.76
2023-05-01T11:12:46.981Z,29.81
2023-05-01T11:15:49.421Z,29.46
2023-05-01T11:18:54.156Z,29.70
2023-05-01T11:21:57.303Z,29.51
2023-05-01T11:25:21.694Z,30.29
2023-05-01T11:28:26.772Z,30.85
2023-05-01T11:31:29.580Z,30.79
2023-05-01T11:34:39.818Z,31.00
2023-05-01T11:37:47.594Z,30.55
2023-05-01T11:40:55.684Z,31.26
2023-05-01T11:44:02.879Z,31.18
2023-05-01T11:47:07.310Z,30.38
2023-05-01T11:50:13.417Z,30.17
2023-05-01T11:53:16.624Z,29.67
2023-05-01T11:56:27.086Z,29.97
2023-05-01T11:59:30.642Z,30.71
2023-05-01T12:02:35.379Z,30.38
2023-05-01T12:05:42.857Z,29.85
2023-05-01T12:08:51.729Z,29.73
2023-05-01T12:11:54.641Z,29.76
2023-05-01T12:14:59.419Z,30.55
2023-05-01T12:18:03.691Z,30.67
2023-05-01T12:21:16.312Z,30.49
2023-05-01T12:24:21.245Z,30.43
2023-05-01T12:27:28.391Z,30.18
2023-05-01T12:30:33.276Z,30.33
2023-05-01T12:33:35.553Z,30.63
2023-05-01T12:36:40.203Z,30.25
2023-05-01T12:39:45.022Z,30.37
2023-05-01T12:42:55.810Z,30.81
2023-05-01T12:45:58.597Z,30.98
2023-05-01T12:49:03.479Z,30.96
2023-05-01T12:52:11.249Z,30.87
2023-05-01T12:55:13.843Z,30.96
2023-05-01T12:58:17.232Z,31.21
2023-05-01T13:01:30.105Z,30.80
2023-05-01T13:04:37.575Z,30.63
2023-05-01T13:07:40.229Z,30.57
2023-05-01T13:10:42.706Z,30.78
2023-05-01T13:13:46.009Z,30.12
2023-05-01T13:16:48.838Z,30.88
2023-05-01T13:20:02.819Z,30.29
2023-05-01T13:23:13.460Z,30.54
2023-05-01T13:26:18.323Z,30.59
2023-05-01T13:29:23.996Z,30.46
2023-05-01T13:32:26.540Z,30.60
2023-05-01T13:35:31.684Z,30.63
2023-05-01T13:38:44.199Z,30.33
2023-05-01T13:41:49.870Z,30.21
2023-05-01T13:44:57.148Z,30.08
2023-05-01T13:48:01.922Z,30.27
2023-05-01T13:51:07.001Z,29.79
2023-05-01T13:54:11.022Z,30.49
2023-05-01T13:57:16.947Z,30.12
2023-05-01T14:00:22.890Z,30.47
2023-05-01T14:03:29.211Z,29.94
2023-05-01T14:06:35.070Z,29.96
2023-05-01T14:09:42.160Z,30.10
2023-05-01T14:12:45.762Z,29.89
2023-05-01T14:15:53.205Z,29.70
2023-05-01T14:18:58.721Z,30.07
2023-05-01T14:22:03.476Z,30.40
2023-05-01T14:25:08.265Z,30.16
2023-05-01T14:28:15.248Z,29.84
2023-05-01T14:31:27.571Z,29.85
2023-05-01T14:34:30.083Z,29.75
2023-05-01T14:37:37.007Z,29.46
2023-05-01T14:40:45.849Z,29.56
2023-05-01T14:43:53.180Z,30.04
2023-05-01T14:46:58.883Z,29.92
2023-05-01T14:50:03.628Z,29.60
2023-05-01T14:53:08.373Z,29.83
2023-05-01T14:56:11.859Z,29.80
2023-05-01T14:59:17.031Z,29.82
2023-05-01T15:02:19.322Z,30.03
2023-05-01T15:05:21.921Z,29.85
2023-05-01T15:08:26.808Z,29.65
2023-05-01T15:11:30.450Z,29.73
2023-05-01T15:14:32.641Z,29.59
2023-05-01T15:17:37.714Z,29.99
2023-05-01T15:20:40.027Z,30.11
2023-05-01T15:23:45.201Z,29.75
2023-05-01T15:26:47.560Z,30.18
2023-05-01T15:29:49.836Z,29.74
2023-05-01T15:32:55.759Z,29.94
2023-05-01T15:36:00.361Z,30.70
2023-05-01T15:39:11.144Z,30.56
2023-05-01T15:42:13.446Z,30.47
2023-05-01T15:45:15.844Z,30.33
2023-05-01T15:48:20.997Z,30.08
2023-05-01T15:51:26.024Z,30.08
2023-05-01T15:54:28.259Z,30.19
2023-05-01T15:57:34.022Z,29.96
2023-05-01T16:00:38.211Z,29.87
2023-05-01T16:03:44.995Z,30.11
2023-05-01T16:06:49.846Z,30.45
2023-05-01T16:09:52.182Z,30.00
2023-05-01T16:12:57.779Z,29.39
2023-05-01T16:16:04.760Z,29.91
2023-05-01T16:19:07.479Z,30.33
2023-05-01T16:22:09.804Z,30.59
2023-05-01T16:25:12.801Z,30.27
2023-05-01T16:28:18.827Z,30.53
2023-05-01T16:31:27.398Z,31.05
2023-05-01T16:34:33.150Z,30.77
2023-05-01T16:37:39.307Z,30.43
2023-05-01T16:40:43.767Z,30.51
2023-05-01T16:43:48.356Z,30.54
2023-05-01T16:47:01.186Z,29.82
2023-05-01T16:50:08.473Z,29.64
2023-05-01T16:53:15.685Z,29.90
2023-05-01T16:56:18.010Z,30.14
2023-05-01T16:59:20.333Z,29.77
2023-05-01T17:02:22.757Z,30.10
2023-05-01T17:05:25.748Z,30.25
2023-05-01T17:08:28.323Z,30.14
2023-05-01T17:11:31.969Z,29.99
2023-05-01T17:14:39.373Z,29.95
2023-05-01T17:17:41.646Z,30.04
2023-05-01T17:20:46.813Z,30.00
2023-05-01T17:23:52.164Z,29.72
2023-05-01T17:26:54.461Z,30.00
2023-05-01T17:29:57.412Z,30.13
2023-05-01T17:33:00.427Z,29.89
2023-05-01T17:36:05.391Z,30.01
2023-05-01T17:39:07.731Z,30.35
2023-05-01T17:42:10.028Z,30.35
2023-05-01T17:45:14.827Z,30.72
2023-05-01T17:48:19.665Z,30.71
2023-05-01T17:51:24.474Z,30.16
2023-05-01T17:54:27.044Z,30.48
2023-05-01T17:57:29.320Z,30.46
2023-05-01T18:00:35.180Z,30.63
2023-05-01T18:03:39.670Z,30.50
2023-05-01T18:06:42.146Z,30.86
2023-05-01T18:09:44.635Z,30.39
2023-05-01T18:12:49.791Z,30.28
2023-05-01T18:15:52.164Z,30.29
2023-05-01T18:18:54.509Z,29.94
2023-05-01T18:21:56.941Z,30.41
2023-05-01T18:24:59.856Z,30.34
2023-05-01T18:28:02.324Z,30.40
2023-05-01T18:31:06.963Z,30.24
2023-05-01T18:34:14.155Z,30.09
2023-05-01T18:37:16.561Z,30.72
2023-05-01T18:40:21.071Z,30.12
2023-05-01T18:43:23.381Z,30.43
2023-05-01T18:46:25.670Z,30.42
2023-05-01T18:49:30.109Z,31.22
2023-05-01T18:52:37.086Z,31.03
2023-05-01T18:55:39.454Z,31.21
2023-05-01T18:58:41.745Z,31.27
2023-05-01T19:01:44.048Z,31.25
2023-05-01T19:04:57.286Z,31.41
2023-05-01T19:08:05.235Z,31.38
2023-05-01T19:11:33.897Z,31.66
2023-05-01T19:14:37.645Z,32.27
2023-05-01T19:17:39.944Z,32.33
2023-05-01T19:20:42.488Z,32.20
2023-05-01T19:23:48.104Z,32.52
2023-05-01T19:26:52.838Z,32.67
2023-05-01T19:29:55.155Z,32.73
2023-05-01T19:33:00.419Z,33.07
2023-05-01T19:36:02.686Z,33.63
2023-05-01T19:39:04.854Z,33.70
2023-05-01T19:42:07.378Z,34.01
2023-05-01T19:45:10.008Z,33.98
2023-05-01T19:48:12.476Z,34.08
2023-05-01T19:51:20.536Z,34.33
2023-05-01T19:54:23.173Z,34.80
2023-05-01T19:57:27.649Z,34.97
2023-05-01T20:00:30.110Z,35.13
2023-05-01T20:03:32.607Z,35.27
2023-05-01T20:06:37.492Z,35.25
2023-05-01T20:09:42.536Z,35.78
2023-05-01T20:12:44.786Z,35.45
2023-05-01T20:15:47.042Z,35.40
2023-05-01T20:18:54.578Z,35.50
2023-05-01T20:21:56.821Z,35.16
2023-05-01T20:25:01.572Z,35.38
2023-05-01T20:28:07.626Z,36.00
2023-05-01T20:31:10.904Z,35.89
2023-05-01T20:34:13.214Z,36.21
2023-05-01T20:37:17.585Z,36.22
2023-05-01T20:40:19.864Z,36.54
2023-05-01T20:43:24.316Z,36.47
2023-05-01T20:46:29.143Z,36.31
2023-05-01T20:49:31.474Z,36.28
2023-05-01T20:52:36.748Z,36.43
2023-05-01T20:55:41.255Z,36.59
2023-05-01T20:58:45.857Z,36.54
2023-05-01T21:01:49.616Z,36.25
2023-05-01T21:04:59.690Z,36.27
2023-05-01T21:08:04.715Z,36.57
2023-05-01T21:11:06.919Z,37.06
2023-05-01T21:14:11.387Z,37.43
2023-05-01T21:17:18.556Z,36.85
2023-05-01T21:20:31.310Z,37.39
2023-05-01T21:23:33.623Z,37.43
2023-05-01T21:26:35.918Z,37.90
2023-05-01T21:29:40.801Z,37.68
2023-05-01T21:32:45.492Z,37.63
2023-05-01T21:35:48.491Z,37.52
2023-05-01T21:38:50.863Z,37.47
2023-05-01T21:41:55.706Z,37.65
2023-05-01T21:45:06.855Z,37.58
2023-05-01T21:48:14.037Z,37.98
2023-05-01T21:51:19.110Z,38.06
2023-05-01T21:54:23.840Z,37.59
2023-05-01T21:57:26.119Z,38.16
2023-05-01T22:00:31.793Z,37.86
2023-05-01T22:03:34.573Z,38.04
2023-05-01T22:06:40.425Z,38.00
2023-05-01T22:09:42.724Z,38.02
2023-05-01T22:12:50.359Z,37.73
2023-05-01T22:15:52.611Z,37.78
2023-05-01T22:18:55.426Z,37.90
2023-05-01T22:21:57.681Z,37.88
2023-05-01T22:25:02.460Z,38.14
2023-05-01T22:28:06.049Z,37.97
2023-05-01T22:31:08.518Z,37.69
2023-05-01T22:34:12.971Z,37.93
2023-05-01T22:37:15.776Z,38.12
2023-05-01T22:40:18.157Z,37.61
2023-05-01T22:43:25.421Z,37.84
2023-05-01T22:46:32.609Z,38.15
2023-05-01T22:49:37.411Z,38.33
2023-05-01T22:52:43.179Z,38.00
2023-05-01T22:55:51.574Z,38.33
2023-05-01T22:58:56.074Z,38.18
2023-05-01T23:01:58.455Z,38.97
2023-05-01T23:05:00.844Z,38.96
2023-05-01T23:08:05.638Z,39.44
2023-05-01T23:11:11.200Z,39.91
2023-05-01T23:14:17.026Z,39.60
2023-05-01T23:17:22.080Z,39.68
2023-05-01T23:20:24.549Z,40.72
2023-05-01T23:23:30.790Z,41.00
2023-05-01T23:26:35.856Z,41.25
2023-05-01T23:29:41.827Z,41.10
2023-05-01T23:32:44.238Z,41.51
2023-05-01T23:35:46.563Z,41.78
2023-05-01T23:38:54.108Z,41.47
2023-05-01T23:41:56.420Z,41.96
2023-05-01T23:45:01.411Z,41.79
2023-05-01T23:48:06.440Z,41.87
2023-05-01T23:51:11.248Z,41.91
2023-05-01T23:54:16.064Z,41.66
2023-05-01T23:57:20.720Z,42.58
